Peoria, IL (61601)

4:34 PM CST on February 08, 2016 (GMT -0600)
DracoPhyre PWS | | Change Station
CLOSE
Current Station
Personal Weather Station
Location: Peoria, IL
Elevation: 640 ft
Nearby Weather Stations
Active Advisory: Special Statement

Elev 640 ft 40.72 °N, 89.59 °W | Updated 16 seconds ago

Snow
Snow
22.3 °F
Feels Like 22 °F
N
0.0
Wind Variable Wind from SE
Gusts 5.4 mph

Today
High -- | Low -- °F
--% Chance of Precip.
Yesterday
High -- | Low -- °F
Precip. -- in
Pressure 29.85 in
Visibility 3.0 miles
Clouds Mostly Cloudy 2200 ft
Overcast 3300 ft
Windchill 22 °F
Dew Point 22 °F
Humidity 99%
Rainfall 0.00 in
Snow Depth Not available.
7:01 AM 5:24 PM
New Moon, 0% visible
SPECI KPIA 082227Z 30013G19KT 3SM -SN BKN022 OVC033 M06/M11 A2985 RMK AO2 P0000 T10611111
Pressure 29.85 in
Visibility 3.0 miles
Clouds Mostly Cloudy 2200 ft
Overcast 3300 ft
Windchill 22 °F
Dew Point 22 °F
Humidity 99%
Rainfall 0.00 in
Snow Depth Not available.
7:01 AM 5:24 PM
New Moon, 0% visible
SPECI KPIA 082227Z 30013G19KT 3SM -SN BKN022 OVC033 M06/M11 A2985 RMK AO2 P0000 T10611111

10-Day Weather Forecast

Almanac

Astronomy

Feb. 08, 2016 Rise Set
Actual Time
Civil Twilight
Nautical Twilight
Astronomical Twilight
Moon
Length of Visible Light
Length of Day
Tomorrow will be .
, % of the Moon is Illuminated

Today's Extremes

State Highs State Lows

Community

WunderPhotos

Upload Photos

1,891,518 photos uploaded!

WunderBlog® & News

Nearby

Air Quality

  Air Quality AQ Index Pollutant
Not available.

Snow Depth

Station Depth Elevation

Earthquake Activity

City Distance Mag. Time & Date
Minimum magnitude displayed is 2.5.

Coastal Water Temperatures

Place Temperature

Stations

Nearby Weather Stations

Station Location Temp. Windchill Dew Point Humidity Wind Precip. Elev Updated Type
                   

Watches & Warnings

Special Statement
Issued: 9:38 AM CST Feb. 8, 2016 – National Weather Service

Scattered snow showers will continue across central and southeast
Illinois through the afternoon. While accumulations will remain
minor... slick spots will develop on many area roadways as
temperatures fall through the 20s. Motorists are advised to drive
with caution. Slow down and plan on extra time to arrive at your
destination today.


Barnes

938 am CST Mon Feb 8 2016

Scattered snow showers will continue across central and southeast
Illinois through the afternoon. While accumulations will remain
minor... slick spots will develop on many area roadways as
temperatures fall through the 20s. Motorists are advised to drive
with caution. Slow down and plan on extra time to arrive at your
destination today.


Barnes